sensor_id;sensor_type;location;lat;lon;timestamp;pressure;altitude;pressure_sealevel;temperature;humidity
85798;BME280;76244;53.434;14.484;2024-03-23T00:52:18;100604.36;;;10.24;71.95
85798;BME280;76244;53.434;14.484;2024-03-23T00:54:50;100607.19;;;10.23;71.70
85798;BME280;76244;53.434;14.484;2024-03-23T00:57:21;100602.96;;;10.21;71.46
85798;BME280;76244;53.434;14.484;2024-03-23T00:59:53;100604.55;;;10.18;71.08
85798;BME280;76244;53.434;14.484;2024-03-23T01:02:25;100601.22;;;10.13;71.13
85798;BME280;76244;53.434;14.484;2024-03-23T01:04:56;100603.33;;;10.10;71.12
85798;BME280;76244;53.434;14.484;2024-03-23T01:07:28;100598.06;;;10.06;71.12
85798;BME280;76244;53.434;14.484;2024-03-23T01:10:00;100595.24;;;10.04;71.10
85798;BME280;76244;53.434;14.484;2024-03-23T01:12:32;100588.90;;;10.04;70.84
85798;BME280;76244;53.434;14.484;2024-03-23T01:15:04;100593.12;;;10.04;70.90
85798;BME280;76244;53.434;14.484;2024-03-23T01:17:36;100589.61;;;10.04;70.91
85798;BME280;76244;53.434;14.484;2024-03-23T01:20:10;100585.57;;;10.05;70.88
85798;BME280;76244;53.434;14.484;2024-03-23T01:22:42;100584.88;;;10.05;70.73
85798;BME280;76244;53.434;14.484;2024-03-23T01:25:14;100582.94;;;10.06;70.78
85798;BME280;76244;53.434;14.484;2024-03-23T01:27:45;100580.30;;;10.06;70.83
85798;BME280;76244;53.434;14.484;2024-03-23T01:30:17;100582.04;;;10.07;71.00
85798;BME280;76244;53.434;14.484;2024-03-23T01:32:49;100585.92;;;10.07;70.82
85798;BME280;76244;53.434;14.484;2024-03-23T01:35:21;100590.51;;;10.05;70.95
85798;BME280;76244;53.434;14.484;2024-03-23T01:37:52;100592.42;;;10.03;71.06
85798;BME280;76244;53.434;14.484;2024-03-23T01:40:24;100592.45;;;10.02;71.32
85798;BME280;76244;53.434;14.484;2024-03-23T01:42:58;100585.58;;;10.02;71.37
85798;BME280;76244;53.434;14.484;2024-03-23T01:45:31;100590.67;;;10.03;71.52
85798;BME280;76244;53.434;14.484;2024-03-23T01:48:03;100592.97;;;10.02;71.62
85798;BME280;76244;53.434;14.484;2024-03-23T01:50:35;100585.05;;;10.02;71.70
85798;BME280;76244;53.434;14.484;2024-03-23T01:53:08;100582.06;;;10.05;71.61
85798;BME280;76244;53.434;14.484;2024-03-23T01:55:40;100579.41;;;10.05;71.59
85798;BME280;76244;53.434;14.484;2024-03-23T01:58:12;100580.82;;;10.03;71.82
85798;BME280;76244;53.434;14.484;2024-03-23T02:00:43;100579.77;;;10.01;71.80
85798;BME280;76244;53.434;14.484;2024-03-23T02:03:25;100573.09;;;9.99;71.85
85798;BME280;76244;53.434;14.484;2024-03-23T02:05:57;100569.56;;;9.97;72.08
85798;BME280;76244;53.434;14.484;2024-03-23T02:08:29;100571.85;;;9.94;72.07
85798;BME280;76244;53.434;14.484;2024-03-23T02:11:01;100569.23;;;9.91;71.91
85798;BME280;76244;53.434;14.484;2024-03-23T02:13:33;100566.23;;;9.91;72.25
85798;BME280;76244;53.434;14.484;2024-03-23T02:16:06;100557.09;;;9.90;72.22
85798;BME280;76244;53.434;14.484;2024-03-23T02:18:38;100553.75;;;9.91;72.29
85798;BME280;76244;53.434;14.484;2024-03-23T02:21:09;100551.28;;;9.91;72.42
85798;BME280;76244;53.434;14.484;2024-03-23T02:23:41;100554.98;;;9.89;72.34
85798;BME280;76244;53.434;14.484;2024-03-23T02:26:13;100553.57;;;9.87;72.29
85798;BME280;76244;53.434;14.484;2024-03-23T02:28:45;100551.46;;;9.85;72.30
85798;BME280;76244;53.434;14.484;2024-03-23T02:31:17;100538.45;;;9.82;72.25
85798;BME280;76244;53.434;14.484;2024-03-23T02:33:48;100538.27;;;9.80;72.11
85798;BME280;76244;53.434;14.484;2024-03-23T02:36:20;100537.92;;;9.79;71.90
85798;BME280;76244;53.434;14.484;2024-03-23T02:38:52;100537.75;;;9.76;71.76
85798;BME280;76244;53.434;14.484;2024-03-23T02:41:24;100534.77;;;9.73;71.73
85798;BME280;76244;53.434;14.484;2024-03-23T02:43:55;100534.25;;;9.70;71.73
85798;BME280;76244;53.434;14.484;2024-03-23T02:46:27;100523.00;;;9.70;71.68
85798;BME280;76244;53.434;14.484;2024-03-23T02:48:59;100519.11;;;9.71;71.75
85798;BME280;76244;53.434;14.484;2024-03-23T02:51:31;100519.28;;;9.72;71.81
85798;BME280;76244;53.434;14.484;2024-03-23T02:54:03;100519.11;;;9.74;71.75
85798;BME280;76244;53.434;14.484;2024-03-23T02:56:35;100517.02;;;9.74;71.75
85798;BME280;76244;53.434;14.484;2024-03-23T02:59:06;100511.19;;;9.75;71.64
85798;BME280;76244;53.434;14.484;2024-03-23T03:01:38;100506.63;;;9.75;71.62
85798;BME280;76244;53.434;14.484;2024-03-23T03:04:10;100504.00;;;9.74;71.77
85798;BME280;76244;53.434;14.484;2024-03-23T03:06:42;100499.41;;;9.73;71.81
85798;BME280;76244;53.434;14.484;2024-03-23T03:09:13;100493.98;;;9.71;71.57
85798;BME280;76244;53.434;14.484;2024-03-23T03:11:45;100485.36;;;9.69;71.80
85798;BME280;76244;53.434;14.484;2024-03-23T03:14:20;100488.53;;;9.66;71.80
85798;BME280;76244;53.434;14.484;2024-03-23T03:16:51;100482.73;;;9.64;71.94
85798;BME280;76244;53.434;14.484;2024-03-23T03:19:26;100477.10;;;9.65;71.76
85798;BME280;76244;53.434;14.484;2024-03-23T03:21:58;100475.16;;;9.66;71.95
85798;BME280;76244;53.434;14.484;2024-03-23T03:24:29;100472.35;;;9.68;72.00
85798;BME280;76244;53.434;14.484;2024-03-23T03:27:01;100471.13;;;9.70;72.16
85798;BME280;76244;53.434;14.484;2024-03-23T03:29:33;100470.60;;;9.70;72.18
85798;BME280;76244;53.434;14.484;2024-03-23T03:32:06;100472.71;;;9.70;72.19
85798;BME280;76244;53.434;14.484;2024-03-23T03:34:38;100469.53;;;9.69;72.24
85798;BME280;76244;53.434;14.484;2024-03-23T03:37:09;100468.13;;;9.68;72.19
85798;BME280;76244;53.434;14.484;2024-03-23T03:39:41;100465.84;;;9.66;72.21
85798;BME280;76244;53.434;14.484;2024-03-23T03:42:12;100460.06;;;9.64;71.90
85798;BME280;76244;53.434;14.484;2024-03-23T03:44:44;100456.17;;;9.62;71.97
85798;BME280;76244;53.434;14.484;2024-03-23T03:47:16;100451.79;;;9.62;72.12
85798;BME280;76244;53.434;14.484;2024-03-23T03:49:50;100444.58;;;9.63;72.16
85798;BME280;76244;53.434;14.484;2024-03-23T03:52:22;100440.71;;;9.63;72.40
85798;BME280;76244;53.434;14.484;2024-03-23T03:55:00;100445.63;;;9.65;72.23
85798;BME280;76244;53.434;14.484;2024-03-23T03:57:33;100447.73;;;9.66;72.20
85798;BME280;76244;53.434;14.484;2024-03-23T04:00:06;100443.17;;;9.67;72.31
85798;BME280;76244;53.434;14.484;2024-03-23T04:02:41;100441.06;;;9.67;72.21
85798;BME280;76244;53.434;14.484;2024-03-23T04:05:13;100442.45;;;9.66;72.27
85798;BME280;76244;53.434;14.484;2024-03-23T04:07:44;100437.54;;;9.65;72.05
85798;BME280;76244;53.434;14.484;2024-03-23T04:10:16;100438.95;;;9.63;72.34
85798;BME280;76244;53.434;14.484;2024-03-23T04:12:48;100434.04;;;9.61;72.10
85798;BME280;76244;53.434;14.484;2024-03-23T04:15:20;100435.62;;;9.58;71.62
85798;BME280;76244;53.434;14.484;2024-03-23T04:17:51;100434.75;;;9.56;71.69
85798;BME280;76244;53.434;14.484;2024-03-23T04:20:23;100427.55;;;9.53;71.90
85798;BME280;76244;53.434;14.484;2024-03-23T04:22:55;100422.98;;;9.52;71.97
85798;BME280;76244;53.434;14.484;2024-03-23T04:25:26;100418.92;;;9.52;71.84
85798;BME280;76244;53.434;14.484;2024-03-23T04:27:58;100411.73;;;9.51;71.87
85798;BME280;76244;53.434;14.484;2024-03-23T04:30:29;100413.48;;;9.50;72.05
85798;BME280;76244;53.434;14.484;2024-03-23T04:33:02;100418.05;;;9.51;72.06
85798;BME280;76244;53.434;14.484;2024-03-23T04:35:33;100420.86;;;9.55;72.28
85798;BME280;76244;53.434;14.484;2024-03-23T04:38:05;100413.65;;;9.56;72.37
85798;BME280;76244;53.434;14.484;2024-03-23T04:40:37;100406.63;;;9.57;72.55
85798;BME280;76244;53.434;14.484;2024-03-23T04:43:08;100407.51;;;9.57;72.82
85798;BME280;76244;53.434;14.484;2024-03-23T04:45:42;100406.63;;;9.56;73.08
85798;BME280;76244;53.434;14.484;2024-03-23T04:48:14;100401.87;;;9.55;72.93
85798;BME280;76244;53.434;14.484;2024-03-23T04:50:45;100400.65;;;9.56;73.02
85798;BME280;76244;53.434;14.484;2024-03-23T04:53:17;100404.52;;;9.57;73.03
85798;BME280;76244;53.434;14.484;2024-03-23T04:55:49;100402.40;;;9.57;73.21
85798;BME280;76244;53.434;14.484;2024-03-23T04:58:20;100400.29;;;9.58;73.28
85798;BME280;76244;53.434;14.484;2024-03-23T05:00:55;100395.36;;;9.58;73.21
85798;BME280;76244;53.434;14.484;2024-03-23T05:03:27;100393.42;;;9.58;73.41
85798;BME280;76244;53.434;14.484;2024-03-23T05:05:59;100394.14;;;9.58;73.46
85798;BME280;76244;53.434;14.484;2024-03-23T05:08:33;100391.51;;;9.56;73.53
85798;BME280;76244;53.434;14.484;2024-03-23T05:11:05;100391.15;;;9.55;73.49
85798;BME280;76244;53.434;14.484;2024-03-23T05:13:37;100393.96;;;9.55;73.70
85798;BME280;76244;53.434;14.484;2024-03-23T05:16:08;100387.28;;;9.55;73.52
85798;BME280;76244;53.434;14.484;2024-03-23T05:18:40;100389.40;;;9.53;73.37
85798;BME280;76244;53.434;14.484;2024-03-23T05:21:12;100386.95;;;9.52;73.45
85798;BME280;76244;53.434;14.484;2024-03-23T05:23:43;100384.48;;;9.52;73.41
85798;BME280;76244;53.434;14.484;2024-03-23T05:26:15;100384.14;;;9.50;73.40
85798;BME280;76244;53.434;14.484;2024-03-23T05:28:46;100382.73;;;9.49;73.56
85798;BME280;76244;53.434;14.484;2024-03-23T05:31:25;100380.27;;;9.48;73.54
85798;BME280;76244;53.434;14.484;2024-03-23T05:33:57;100378.88;;;9.47;73.55
85798;BME280;76244;53.434;14.484;2024-03-23T05:36:29;100374.65;;;9.46;73.43
85798;BME280;76244;53.434;14.484;2024-03-23T05:39:01;100379.73;;;9.45;73.67
85798;BME280;76244;53.434;14.484;2024-03-23T05:41:32;100379.23;;;9.46;73.46
85798;BME280;76244;53.434;14.484;2024-03-23T05:44:06;100380.97;;;9.48;73.59
85798;BME280;76244;53.434;14.484;2024-03-23T05:46:38;100377.27;;;9.49;73.57
85798;BME280;76244;53.434;14.484;2024-03-23T05:49:09;100376.22;;;9.49;73.34
85798;BME280;76244;53.434;14.484;2024-03-23T05:51:41;100371.66;;;9.46;72.84
85798;BME280;76244;53.434;14.484;2024-03-23T05:54:13;100372.38;;;9.43;72.42
85798;BME280;76244;53.434;14.484;2024-03-23T05:56:45;100365.52;;;9.40;72.34
85798;BME280;76244;53.434;14.484;2024-03-23T05:59:17;100361.50;;;9.36;71.52
85798;BME280;76244;53.434;14.484;2024-03-23T06:01:48;100360.62;;;9.32;71.45
85798;BME280;76244;53.434;14.484;2024-03-23T06:04:20;100352.71;;;9.29;71.50
85798;BME280;76244;53.434;14.484;2024-03-23T06:06:53;100348.86;;;9.25;71.44
85798;BME280;76244;53.434;14.484;2024-03-23T06:09:24;100348.16;;;9.21;70.90
85798;BME280;76244;53.434;14.484;2024-03-23T06:11:56;100355.90;;;9.16;70.90
85798;BME280;76244;53.434;14.484;2024-03-23T06:14:28;100361.35;;;9.12;71.04
85798;BME280;76244;53.434;14.484;2024-03-23T06:17:00;100362.40;;;9.09;70.79
85798;BME280;76244;53.434;14.484;2024-03-23T06:19:31;100361.18;;;9.03;70.18
85798;BME280;76244;53.434;14.484;2024-03-23T06:22:03;100363.28;;;8.98;70.00
85798;BME280;76244;53.434;14.484;2024-03-23T06:24:37;100356.42;;;8.94;70.09
85798;BME280;76244;53.434;14.484;2024-03-23T06:27:08;100352.58;;;8.90;70.21
85798;BME280;76244;53.434;14.484;2024-03-23T06:29:40;100348.00;;;8.89;70.44
85798;BME280;76244;53.434;14.484;2024-03-23T06:32:12;100345.02;;;8.89;70.57
85798;BME280;76244;53.434;14.484;2024-03-23T06:34:44;100343.09;;;8.89;70.54
85798;BME280;76244;53.434;14.484;2024-03-23T06:37:16;100341.85;;;8.90;70.43
85798;BME280;76244;53.434;14.484;2024-03-23T06:39:48;100341.33;;;8.93;70.68
85798;BME280;76244;53.434;14.484;2024-03-23T06:42:20;100342.58;;;8.94;70.67
85798;BME280;76244;53.434;14.484;2024-03-23T06:44:51;100349.95;;;8.94;70.60
85798;BME280;76244;53.434;14.484;2024-03-23T06:47:23;100351.70;;;8.95;70.50
85798;BME280;76244;53.434;14.484;2024-03-23T06:49:58;100349.41;;;8.96;70.54
85798;BME280;76244;53.434;14.484;2024-03-23T06:52:32;100349.59;;;8.95;70.59
85798;BME280;76244;53.434;14.484;2024-03-23T06:55:05;100351.52;;;8.94;70.62
85798;BME280;76244;53.434;14.484;2024-03-23T06:57:37;100349.05;;;8.92;70.61
85798;BME280;76244;53.434;14.484;2024-03-23T07:00:11;100348.02;;;8.91;70.56
85798;BME280;76244;53.434;14.484;2024-03-23T07:02:43;100344.51;;;8.91;70.80
85798;BME280;76244;53.434;14.484;2024-03-23T07:05:15;100341.69;;;8.89;70.94
85798;BME280;76244;53.434;14.484;2024-03-23T07:07:47;100338.52;;;8.88;71.07
85798;BME280;76244;53.434;14.484;2024-03-23T07:10:19;100337.46;;;8.89;71.04
85798;BME280;76244;53.434;14.484;2024-03-23T07:12:50;100334.48;;;8.90;71.22
85798;BME280;76244;53.434;14.484;2024-03-23T07:15:22;100327.80;;;8.92;71.22
85798;BME280;76244;53.434;14.484;2024-03-23T07:17:53;100323.78;;;8.94;71.24
85798;BME280;76244;53.434;14.484;2024-03-23T07:20:25;100322.37;;;8.97;71.08
85798;BME280;76244;53.434;14.484;2024-03-23T07:22:57;100319.02;;;9.00;71.12
85798;BME280;76244;53.434;14.484;2024-03-23T07:25:29;100314.27;;;9.03;71.24
85798;BME280;76244;53.434;14.484;2024-03-23T07:28:02;100311.48;;;9.04;71.44
85798;BME280;76244;53.434;14.484;2024-03-23T07:30:33;100308.66;;;9.05;71.44
85798;BME280;76244;53.434;14.484;2024-03-23T07:33:06;100307.05;;;9.07;71.69
85798;BME280;76244;53.434;14.484;2024-03-23T07:35:37;100301.80;;;9.07;71.48
85798;BME280;76244;53.434;14.484;2024-03-23T07:38:09;100298.81;;;9.07;71.48
85798;BME280;76244;53.434;14.484;2024-03-23T07:40:41;100296.55;;;9.08;71.49
85798;BME280;76244;53.434;14.484;2024-03-23T07:43:12;100291.79;;;9.10;71.70
85798;BME280;76244;53.434;14.484;2024-03-23T07:45:44;100283.17;;;9.12;71.87
85798;BME280;76244;53.434;14.484;2024-03-23T07:48:23;100286.15;;;9.16;72.01
85798;BME280;76244;53.434;14.484;2024-03-23T07:51:02;100284.21;;;9.19;71.93
85798;BME280;76244;53.434;14.484;2024-03-23T07:53:35;100284.02;;;9.23;71.66
85798;BME280;76244;53.434;14.484;2024-03-23T07:56:08;100290.34;;;9.26;71.32
85798;BME280;76244;53.434;14.484;2024-03-23T07:58:41;100280.69;;;9.26;71.48
85798;BME280;76244;53.434;14.484;2024-03-23T08:01:15;100279.29;;;9.26;71.34
85798;BME280;76244;53.434;14.484;2024-03-23T08:03:47;100281.92;;;9.26;71.62
85798;BME280;76244;53.434;14.484;2024-03-23T08:06:21;100274.71;;;9.26;71.17
85798;BME280;76244;53.434;14.484;2024-03-23T08:08:57;100267.85;;;9.27;70.99
85798;BME280;76244;53.434;14.484;2024-03-23T08:11:31;100265.91;;;9.27;70.80
85798;BME280;76244;53.434;14.484;2024-03-23T08:14:05;100257.65;;;9.29;71.09
85798;BME280;76244;53.434;14.484;2024-03-23T08:16:36;100256.27;;;9.29;70.55
85798;BME280;76244;53.434;14.484;2024-03-23T08:19:08;100247.82;;;9.29;70.46
85798;BME280;76244;53.434;14.484;2024-03-23T08:21:40;100244.48;;;9.31;70.63
85798;BME280;76244;53.434;14.484;2024-03-23T08:24:11;100239.36;;;9.35;70.52
85798;BME280;76244;53.434;14.484;2024-03-23T08:26:43;100243.04;;;9.40;70.20
85798;BME280;76244;53.434;14.484;2024-03-23T08:29:15;100241.60;;;9.45;69.96
85798;BME280;76244;53.434;14.484;2024-03-23T08:31:49;100238.95;;;9.49;69.67
85798;BME280;76244;53.434;14.484;2024-03-23T08:34:21;100239.45;;;9.53;69.36
85798;BME280;76244;53.434;14.484;2024-03-23T08:36:52;100235.40;;;9.56;69.77
85798;BME280;76244;53.434;14.484;2024-03-23T08:39:24;100234.86;;;9.60;69.55
85798;BME280;76244;53.434;14.484;2024-03-23T08:41:56;100234.84;;;9.63;69.34
85798;BME280;76244;53.434;14.484;2024-03-23T08:44:28;100226.77;;;9.65;68.99
85798;BME280;76244;53.434;14.484;2024-03-23T08:46:59;100223.59;;;9.64;68.20
85798;BME280;76244;53.434;14.484;2024-03-23T08:49:31;100219.54;;;9.65;68.63
85798;BME280;76244;53.434;14.484;2024-03-23T08:52:04;100217.08;;;9.65;68.51
85798;BME280;76244;53.434;14.484;2024-03-23T08:54:35;100207.25;;;9.63;68.44
85798;BME280;76244;53.434;14.484;2024-03-23T08:57:08;100204.95;;;9.62;68.92
85798;BME280;76244;53.434;14.484;2024-03-23T08:59:40;100203.38;;;9.62;68.83
85798;BME280;76244;53.434;14.484;2024-03-23T09:02:12;100210.08;;;9.60;68.53
85798;BME280;76244;53.434;14.484;2024-03-23T09:04:43;100217.45;;;9.59;68.18
85798;BME280;76244;53.434;14.484;2024-03-23T09:07:15;100223.10;;;9.56;68.31
85798;BME280;76244;53.434;14.484;2024-03-23T09:09:47;100218.39;;;9.53;68.81
85798;BME280;76244;53.434;14.484;2024-03-23T09:12:18;100215.73;;;9.53;69.10
85798;BME280;76244;53.434;14.484;2024-03-23T09:14:50;100217.30;;;9.54;69.03
85798;BME280;76244;53.434;14.484;2024-03-23T09:17:22;100217.30;;;9.57;68.89
85798;BME280;76244;53.434;14.484;2024-03-23T09:19:54;100218.00;;;9.59;68.72
85798;BME280;76244;53.434;14.484;2024-03-23T09:22:25;100220.63;;;9.61;68.45
85798;BME280;76244;53.434;14.484;2024-03-23T09:24:57;100218.50;;;9.63;67.89
85798;BME280;76244;53.434;14.484;2024-03-23T09:27:28;100214.09;;;9.63;67.82
85798;BME280;76244;53.434;14.484;2024-03-23T09:30:00;100211.64;;;9.63;67.76
85798;BME280;76244;53.434;14.484;2024-03-23T09:32:32;100214.30;;;9.60;68.04
85798;BME280;76244;53.434;14.484;2024-03-23T09:35:04;100209.91;;;9.58;68.17
85798;BME280;76244;53.434;14.484;2024-03-23T09:37:36;100205.52;;;9.56;68.29
85798;BME280;76244;53.434;14.484;2024-03-23T09:40:11;100202.02;;;9.53;68.23
85798;BME280;76244;53.434;14.484;2024-03-23T09:42:43;100201.15;;;9.50;68.61
85798;BME280;76244;53.434;14.484;2024-03-23T09:45:23;100201.86;;;9.48;69.11
85798;BME280;76244;53.434;14.484;2024-03-23T09:47:57;100202.23;;;9.46;69.29
85798;BME280;76244;53.434;14.484;2024-03-23T09:50:30;100195.04;;;9.46;68.69
85798;BME280;76244;53.434;14.484;2024-03-23T09:53:01;100191.17;;;9.46;67.14
85798;BME280;76244;53.434;14.484;2024-03-23T09:55:33;100186.95;;;9.45;64.91
85798;BME280;76244;53.434;14.484;2024-03-23T09:58:06;100179.21;;;9.46;64.70
85798;BME280;76244;53.434;14.484;2024-03-23T10:00:38;100176.91;;;9.49;64.05
85798;BME280;76244;53.434;14.484;2024-03-23T10:03:10;100179.70;;;9.51;64.40
85798;BME280;76244;53.434;14.484;2024-03-23T10:05:42;100186.37;;;9.55;64.71
85798;BME280;76244;53.434;14.484;2024-03-23T10:08:20;100191.64;;;9.55;64.37
85798;BME280;76244;53.434;14.484;2024-03-23T10:10:52;100192.92;;;9.47;61.93
85798;BME280;76244;53.434;14.484;2024-03-23T10:13:27;100186.64;;;9.37;61.40
85798;BME280;76244;53.434;14.484;2024-03-23T10:16:00;100189.65;;;9.31;61.91
85798;BME280;76244;53.434;14.484;2024-03-23T10:18:31;100202.33;;;9.24;62.00
85798;BME280;76244;53.434;14.484;2024-03-23T10:21:11;100200.60;;;9.16;61.38
85798;BME280;76244;53.434;14.484;2024-03-23T10:23:44;100195.16;;;9.12;62.86
85798;BME280;76244;53.434;14.484;2024-03-23T10:26:18;100184.30;;;9.08;63.03
85798;BME280;76244;53.434;14.484;2024-03-23T10:28:56;100168.69;;;9.01;62.56
85798;BME280;76244;53.434;14.484;2024-03-23T10:31:31;100167.47;;;8.96;63.25
85798;BME280;76244;53.434;14.484;2024-03-23T10:34:03;100166.95;;;8.94;63.72
85798;BME280;76244;53.434;14.484;2024-03-23T10:36:36;100162.91;;;8.93;63.55
85798;BME280;76244;53.434;14.484;2024-03-23T10:39:12;100158.01;;;8.92;62.99
85798;BME280;76244;53.434;14.484;2024-03-23T10:41:48;100165.91;;;8.92;62.36
85798;BME280;76244;53.434;14.484;2024-03-23T10:44:21;100164.86;;;8.91;62.05
85798;BME280;76244;53.434;14.484;2024-03-23T10:47:00;100173.64;;;8.89;62.21
85798;BME280;76244;53.434;14.484;2024-03-23T10:49:33;100168.73;;;8.87;62.60
85798;BME280;76244;53.434;14.484;2024-03-23T10:52:06;100171.71;;;8.86;63.19
85798;BME280;76244;53.434;14.484;2024-03-23T10:54:38;100168.21;;;8.85;63.94
85798;BME280;76244;53.434;14.484;2024-03-23T10:57:16;100166.81;;;8.86;64.39
85798;BME280;76244;53.434;14.484;2024-03-23T10:59:49;100168.20;;;8.86;64.66
85798;BME280;76244;53.434;14.484;2024-03-23T11:02:21;100168.55;;;8.88;64.40
85798;BME280;76244;53.434;14.484;2024-03-23T11:04:53;100162.59;;;8.89;63.97
85798;BME280;76244;53.434;14.484;2024-03-23T11:07:32;100159.07;;;8.90;64.32
85798;BME280;76244;53.434;14.484;2024-03-23T11:10:28;100161.34;;;8.92;64.89
85798;BME280;76244;53.434;14.484;2024-03-23T11:13:23;100165.20;;;8.93;65.02
85798;BME280;76244;53.434;14.484;2024-03-23T11:15:55;100171.69;;;8.96;65.23
85798;BME280;76244;53.434;14.484;2024-03-23T11:18:26;100176.78;;;8.98;65.27
85798;BME280;76244;53.434;14.484;2024-03-23T11:20:58;100178.52;;;8.99;65.36
85798;BME280;76244;53.434;14.484;2024-03-23T11:23:29;100181.34;;;8.99;65.76
85798;BME280;76244;53.434;14.484;2024-03-23T11:26:01;100186.59;;;9.00;66.15
85798;BME280;76244;53.434;14.484;2024-03-23T11:28:34;100186.42;;;9.02;66.33
85798;BME280;76244;53.434;14.484;2024-03-23T11:31:11;100184.30;;;9.07;66.87
85798;BME280;76244;53.434;14.484;2024-03-23T11:33:43;100187.45;;;9.11;66.65
85798;BME280;76244;53.434;14.484;2024-03-23T11:36:21;100186.20;;;9.14;66.39
85798;BME280;76244;53.434;14.484;2024-03-23T11:38:52;100183.20;;;9.18;66.51
85798;BME280;76244;53.434;14.484;2024-03-23T11:41:24;100179.69;;;9.22;66.67
85798;BME280;76244;53.434;14.484;2024-03-23T11:43:56;100182.83;;;9.24;66.42
85798;BME280;76244;53.434;14.484;2024-03-23T11:46:28;100182.31;;;9.25;66.72
85798;BME280;76244;53.434;14.484;2024-03-23T11:48:59;100178.44;;;9.26;66.59
85798;BME280;76244;53.434;14.484;2024-03-23T11:51:31;100177.52;;;9.28;66.66
85798;BME280;76244;53.434;14.484;2024-03-23T11:54:10;100181.94;;;9.27;66.04
85798;BME280;76244;53.434;14.484;2024-03-23T11:56:41;100188.63;;;9.23;64.90
85798;BME280;76244;53.434;14.484;2024-03-23T11:59:35;100185.82;;;9.21;65.16
85798;BME280;76244;53.434;14.484;2024-03-23T12:02:10;100192.16;;;9.19;64.76
85798;BME280;76244;53.434;14.484;2024-03-23T12:04:42;100199.35;;;9.18;64.89
85798;BME280;76244;53.434;14.484;2024-03-23T12:07:15;100194.27;;;9.17;64.78
85798;BME280;76244;53.434;14.484;2024-03-23T12:10:03;100196.21;;;9.16;64.94
85798;BME280;76244;53.434;14.484;2024-03-23T12:12:35;100194.11;;;9.15;64.26
85798;BME280;76244;53.434;14.484;2024-03-23T12:15:08;100197.63;;;9.14;64.24
85798;BME280;76244;53.434;14.484;2024-03-23T12:17:40;100200.60;;;9.14;64.31
85798;BME280;76244;53.434;14.484;2024-03-23T12:20:12;100201.50;;;9.15;64.48
85798;BME280;76244;53.434;14.484;2024-03-23T12:22:43;100200.08;;;9.14;64.52
85798;BME280;76244;53.434;14.484;2024-03-23T12:25:17;100201.48;;;9.13;64.60
85798;BME280;76244;53.434;14.484;2024-03-23T12:27:48;100202.54;;;9.14;64.74
85798;BME280;76244;53.434;14.484;2024-03-23T12:30:20;100198.51;;;9.15;65.00
85798;BME280;76244;53.434;14.484;2024-03-23T12:32:52;100199.56;;;9.16;64.63
85798;BME280;76244;53.434;14.484;2024-03-23T12:35:24;100202.55;;;9.16;64.38
85798;BME280;76244;53.434;14.484;2024-03-23T12:37:55;100202.52;;;9.16;64.45
85798;BME280;76244;53.434;14.484;2024-03-23T12:40:27;100195.52;;;9.16;64.15
85798;BME280;76244;53.434;14.484;2024-03-23T12:42:59;100194.81;;;9.16;63.68
85798;BME280;76244;53.434;14.484;2024-03-23T12:45:30;100198.85;;;9.16;63.45
85798;BME280;76244;53.434;14.484;2024-03-23T12:48:02;100198.68;;;9.15;63.05
85798;BME280;76244;53.434;14.484;2024-03-23T12:50:34;100200.61;;;9.15;62.38
85798;BME280;76244;53.434;14.484;2024-03-23T12:53:06;100199.20;;;9.13;61.99
85798;BME280;76244;53.434;14.484;2024-03-23T12:55:38;100201.50;;;9.12;61.95
85798;BME280;76244;53.434;14.484;2024-03-23T12:58:09;100208.54;;;9.12;61.71
85798;BME280;76244;53.434;14.484;2024-03-23T13:00:41;100211.17;;;9.11;61.08
85798;BME280;76244;53.434;14.484;2024-03-23T13:03:14;100211.86;;;9.10;61.25
85798;BME280;76244;53.434;14.484;2024-03-23T13:05:52;100209.05;;;9.10;60.83
85798;BME280;76244;53.434;14.484;2024-03-23T13:08:24;100202.38;;;9.11;60.97
85798;BME280;76244;53.434;14.484;2024-03-23T13:10:55;100206.23;;;9.13;60.94
85798;BME280;76244;53.434;14.484;2024-03-23T13:13:27;100205.35;;;9.14;60.33
85798;BME280;76244;53.434;14.484;2024-03-23T13:15:59;100207.81;;;9.14;60.39
85798;BME280;76244;53.434;14.484;2024-03-23T13:18:31;100209.38;;;9.17;60.64
85798;BME280;76244;53.434;14.484;2024-03-23T13:21:05;100215.70;;;9.18;60.30
85798;BME280;76244;53.434;14.484;2024-03-23T13:23:37;100216.75;;;9.17;59.90
85798;BME280;76244;53.434;14.484;2024-03-23T13:26:11;100213.42;;;9.16;60.08
85798;BME280;76244;53.434;14.484;2024-03-23T13:28:47;100212.02;;;9.18;60.46
85798;BME280;76244;53.434;14.484;2024-03-23T13:31:18;100206.03;;;9.21;60.64
85798;BME280;76244;53.434;14.484;2024-03-23T13:33:51;100206.89;;;9.23;60.53
85798;BME280;76244;53.434;14.484;2024-03-23T13:36:23;100205.51;;;9.25;59.65
85798;BME280;76244;53.434;14.484;2024-03-23T13:38:55;100203.89;;;9.27;59.29
85798;BME280;76244;53.434;14.484;2024-03-23T13:41:27;100202.30;;;9.29;59.78
85798;BME280;76244;53.434;14.484;2024-03-23T13:43:59;100205.10;;;9.34;59.63
85798;BME280;76244;53.434;14.484;2024-03-23T13:46:30;100202.64;;;9.37;59.58
85798;BME280;76244;53.434;14.484;2024-03-23T13:49:02;100202.08;;;9.41;59.67
85798;BME280;76244;53.434;14.484;2024-03-23T13:51:34;100202.23;;;9.44;59.53
85798;BME280;76244;53.434;14.484;2024-03-23T13:54:05;100205.21;;;9.48;59.08
85798;BME280;76244;53.434;14.484;2024-03-23T13:56:37;100207.15;;;9.50;58.70
85798;BME280;76244;53.434;14.484;2024-03-23T13:59:09;100209.41;;;9.51;58.27
85798;BME280;76244;53.434;14.484;2024-03-23T14:01:40;100211.15;;;9.54;58.16
85798;BME280;76244;53.434;14.484;2024-03-23T14:04:12;100209.92;;;9.57;57.77
85798;BME280;76244;53.434;14.484;2024-03-23T14:06:44;100204.63;;;9.60;57.23
85798;BME280;76244;53.434;14.484;2024-03-23T14:09:16;100204.44;;;9.63;57.52